createdAt,value
2022-09-05T00:04:25.252Z,99.90
2022-09-05T00:09:40.240Z,99.90
2022-09-05T00:15:16.273Z,99.90
2022-09-05T00:24:18.945Z,99.90
2022-09-05T00:26:12.474Z,99.90
2022-09-05T00:31:55.307Z,99.90
2022-09-05T00:36:56.482Z,99.90
2022-09-05T00:42:09.713Z,99.90
2022-09-05T00:47:21.485Z,99.90
2022-09-05T00:53:06.633Z,99.90
2022-09-05T00:58:19.259Z,99.90
2022-09-05T01:03:27.949Z,99.90
2022-09-05T01:08:51.738Z,99.90
2022-09-05T01:14:20.065Z,99.90
2022-09-05T01:19:51.776Z,99.90
2022-09-05T01:25:10.941Z,99.90
2022-09-05T01:30:23.465Z,99.90
2022-09-05T01:36:00.554Z,99.90
2022-09-05T01:41:18.908Z,99.90
2022-09-05T01:46:30.006Z,99.90
2022-09-05T01:52:01.591Z,99.90
2022-09-05T01:57:21.868Z,99.90
2022-09-05T02:02:55.696Z,99.90
2022-09-05T02:08:08.891Z,99.90
2022-09-05T02:13:30.070Z,99.90
2022-09-05T02:19:05.313Z,99.90
2022-09-05T02:24:36.095Z,99.90
2022-09-05T02:29:50.791Z,99.90
2022-09-05T02:34:59.651Z,99.90
2022-09-05T02:45:03.598Z,99.90
2022-09-05T02:46:05.107Z,99.90
2022-09-05T02:57:23.060Z,99.90
2022-09-05T02:58:05.926Z,99.90
2022-09-05T03:03:18.106Z,99.90
2022-09-05T03:08:34.033Z,99.90
2022-09-05T03:13:57.852Z,99.90
2022-09-05T03:19:06.518Z,99.90
2022-09-05T03:24:55.929Z,99.90
2022-09-05T03:30:36.838Z,99.90
2022-09-05T03:36:10.851Z,99.90
2022-09-05T03:41:40.312Z,99.90
2022-09-05T03:47:13.084Z,99.90
2022-09-05T03:57:10.353Z,99.90
2022-09-05T03:58:55.838Z,99.90
2022-09-05T04:08:15.982Z,99.90
2022-09-05T04:09:59.211Z,99.90
2022-09-05T04:15:32.302Z,99.90
2022-09-05T04:20:56.785Z,99.90
2022-09-05T04:26:11.368Z,99.90
2022-09-05T04:32:05.495Z,99.90
2022-09-05T04:37:48.929Z,99.90
2022-09-05T04:42:55.196Z,99.90
2022-09-05T04:48:06.220Z,99.90
2022-09-05T04:53:34.646Z,99.90
2022-09-05T05:00:22.819Z,99.90
2022-09-05T05:06:14.486Z,99.90
2022-09-05T05:10:01.896Z,99.90
2022-09-05T05:18:09.260Z,99.90
2022-09-05T05:21:10.826Z,99.90
2022-09-05T05:26:23.860Z,99.90
2022-09-05T05:31:32.747Z,99.90
2022-09-05T05:36:48.784Z,99.90
2022-09-05T05:42:17.460Z,99.90
2022-09-05T05:47:43.701Z,99.90
2022-09-05T05:53:33.638Z,99.90
2022-09-05T05:59:25.033Z,99.90
2022-09-05T06:04:44.795Z,99.90
2022-09-05T06:14:50.394Z,99.90
2022-09-05T06:15:41.958Z,99.90
2022-09-05T06:22:06.614Z,99.90
2022-09-05T06:26:58.541Z,99.90
2022-09-05T06:33:05.417Z,99.90
2022-09-05T06:38:28.689Z,99.90
2022-09-05T06:43:46.370Z,99.90
2022-09-05T06:49:30.341Z,99.90
2022-09-05T06:55:09.719Z,99.90
2022-09-05T07:00:25.293Z,99.90
2022-09-05T07:05:45.092Z,99.90
2022-09-05T07:11:16.128Z,99.90
2022-09-05T07:16:40.328Z,99.90
2022-09-05T07:22:47.344Z,99.90
2022-09-05T07:28:28.209Z,99.90
2022-09-05T07:33:29.658Z,99.90
2022-09-05T07:38:52.104Z,99.90
2022-09-05T07:44:29.161Z,99.10
2022-09-05T07:49:39.900Z,98.00
2022-09-05T07:57:09.778Z,95.30
2022-09-05T08:00:38.097Z,93.40
2022-09-05T08:05:50.219Z,83.30
2022-09-05T08:11:24.434Z,61.80
2022-09-05T08:16:27.946Z,55.10
2022-09-05T08:21:43.555Z,46.20
2022-09-05T08:26:52.147Z,43.70
2022-09-05T08:32:10.324Z,47.00
2022-09-05T08:37:22.708Z,45.50
2022-09-05T08:42:49.378Z,47.90
2022-09-05T08:48:16.944Z,49.80
2022-09-05T08:53:46.207Z,47.90
2022-09-05T08:59:27.871Z,46.90
2022-09-05T09:05:14.314Z,47.50
2022-09-05T09:10:47.908Z,50.40
2022-09-05T09:16:19.056Z,49.40
2022-09-05T09:21:40.015Z,49.60
2022-09-05T09:26:58.126Z,49.60
2022-09-05T09:32:30.896Z,53.10
2022-09-05T09:38:10.089Z,55.00
2022-09-05T09:43:30.218Z,55.30
2022-09-05T09:48:53.965Z,56.50
2022-09-05T09:54:21.360Z,57.40
2022-09-05T09:59:54.044Z,58.90
2022-09-05T10:10:38.413Z,61.00
2022-09-05T10:16:50.517Z,60.60
2022-09-05T10:22:37.776Z,62.40
2022-09-05T10:27:44.595Z,63.20
2022-09-05T10:35:14.386Z,66.20
2022-09-05T10:38:43.003Z,78.10
2022-09-05T10:44:03.816Z,64.00
2022-09-05T10:49:12.806Z,63.90
2022-09-05T10:55:14.081Z,65.30
2022-09-05T11:02:24.866Z,82.10
2022-09-05T11:07:19.335Z,66.70
2022-09-05T11:12:57.650Z,67.10
2022-09-05T11:18:10.377Z,71.10
2022-09-05T11:23:56.865Z,69.60
2022-09-05T11:29:14.884Z,72.30
2022-09-05T11:40:08.639Z,71.00
2022-09-05T11:40:31.209Z,77.60
2022-09-05T11:45:52.080Z,79.10
2022-09-05T11:51:33.474Z,77.80
2022-09-05T11:56:54.422Z,78.50
2022-09-05T12:02:51.866Z,76.10
2022-09-05T12:08:28.827Z,75.50
2022-09-05T12:13:37.413Z,78.80
2022-09-05T12:19:07.534Z,79.90
2022-09-05T12:25:27.108Z,79.80
2022-09-05T12:30:33.627Z,78.90
2022-09-05T12:40:54.550Z,79.40
2022-09-05T12:42:11.401Z,79.50
2022-09-05T12:47:19.404Z,79.90
2022-09-05T12:52:28.522Z,82.90
2022-09-05T13:01:19.042Z,80.00
2022-09-05T13:03:40.642Z,82.30
2022-09-05T13:08:59.091Z,80.70
2022-09-05T13:14:57.187Z,81.90
2022-09-05T13:19:52.663Z,80.70
2022-09-05T13:25:13.381Z,80.10
2022-09-05T13:31:28.604Z,80.50
2022-09-05T13:38:16.015Z,77.90
2022-09-05T13:41:39.091Z,79.00
2022-09-05T13:47:29.076Z,80.70
2022-09-05T13:53:10.322Z,79.40
2022-09-05T13:58:33.599Z,76.10
2022-09-05T14:10:04.628Z,71.60
2022-09-05T14:15:34.159Z,69.90
2022-09-05T14:21:10.545Z,69.10
2022-09-05T14:26:23.649Z,67.00
2022-09-05T14:37:41.990Z,65.80
2022-09-05T14:38:04.289Z,65.50
2022-09-05T14:43:52.527Z,65.00
2022-09-05T14:49:18.629Z,64.60
2022-09-05T15:02:50.861Z,66.30
2022-09-05T15:05:53.623Z,65.90
2022-09-05T15:12:20.230Z,65.40
2022-09-05T15:16:28.532Z,66.20
2022-09-05T15:21:39.664Z,68.20
2022-09-05T15:27:17.520Z,68.40
2022-09-05T15:32:29.484Z,68.80
2022-09-05T15:37:39.253Z,68.80
2022-09-05T15:42:53.365Z,68.30
2022-09-05T15:48:19.143Z,69.10
2022-09-05T15:53:35.926Z,69.30
2022-09-05T15:58:55.222Z,71.10
2022-09-05T16:08:31.388Z,70.20
2022-09-05T16:10:59.013Z,70.40
2022-09-05T16:19:00.197Z,71.00
2022-09-05T16:23:23.941Z,70.60
2022-09-05T16:26:14.159Z,70.60
2022-09-05T16:31:51.461Z,70.30
2022-09-05T16:37:08.022Z,70.00
2022-09-05T16:42:47.195Z,69.50
2022-09-05T16:48:07.065Z,69.30
2022-09-05T16:53:28.297Z,70.10
2022-09-05T16:59:03.149Z,69.80
2022-09-05T17:04:21.654Z,68.60
2022-09-05T17:09:40.504Z,70.00
2022-09-05T17:14:54.776Z,70.10
2022-09-05T17:20:07.303Z,69.30
2022-09-05T17:29:24.239Z,67.80
2022-09-05T17:36:53.560Z,67.90
2022-09-05T17:42:10.316Z,68.90
2022-09-05T17:47:24.318Z,69.30
2022-09-05T17:53:25.819Z,69.70
2022-09-05T17:58:41.225Z,69.40
2022-09-05T18:04:15.837Z,69.30
2022-09-05T18:10:01.504Z,70.10
2022-09-05T18:15:27.110Z,67.90
2022-09-05T18:20:45.179Z,67.60
2022-09-05T18:25:56.920Z,68.30
2022-09-05T18:31:41.618Z,68.70
2022-09-05T18:36:52.879Z,71.00
2022-09-05T18:42:26.553Z,70.60
2022-09-05T18:47:59.132Z,71.20
2022-09-05T18:53:12.975Z,71.80
2022-09-05T18:58:37.072Z,71.70
2022-09-05T19:03:45.038Z,73.30
2022-09-05T19:09:26.861Z,72.70
2022-09-05T19:14:56.024Z,75.90
2022-09-05T19:20:33.108Z,76.10
2022-09-05T19:25:41.298Z,76.80
2022-09-05T19:36:58.906Z,79.10
2022-09-05T19:37:23.826Z,80.90
2022-09-05T19:47:30.004Z,83.10
2022-09-05T19:53:10.297Z,85.50
2022-09-05T19:58:24.047Z,87.40
2022-09-05T20:03:38.197Z,89.00
2022-09-05T20:08:48.463Z,90.00
2022-09-05T20:13:55.116Z,90.20
2022-09-05T20:19:01.634Z,91.30
2022-09-05T20:24:08.265Z,91.00
2022-09-05T20:29:16.472Z,91.10
2022-09-05T20:35:17.495Z,93.60
2022-09-05T20:43:18.556Z,94.50
2022-09-05T20:45:46.058Z,94.30
2022-09-05T20:54:21.533Z,95.30
2022-09-05T20:56:37.603Z,95.80
2022-09-05T21:01:44.140Z,97.10
2022-09-05T21:06:50.901Z,97.30
2022-09-05T21:12:00.116Z,97.90
2022-09-05T21:17:15.504Z,98.50
2022-09-05T21:22:43.676Z,99.40
2022-09-05T21:28:23.458Z,99.90
2022-09-05T21:33:45.118Z,99.90
2022-09-05T21:38:51.507Z,99.90
2022-09-05T21:47:34.035Z,99.90
2022-09-05T21:49:24.554Z,99.90
2022-09-05T21:59:14.485Z,99.90
2022-09-05T22:00:04.008Z,99.90
2022-09-05T22:05:26.933Z,99.90
2022-09-05T22:10:43.457Z,99.90
2022-09-05T22:16:06.308Z,99.90
2022-09-05T22:21:31.758Z,99.90
2022-09-05T22:27:11.355Z,99.90
2022-09-05T22:32:14.717Z,99.90
2022-09-05T22:37:20.613Z,99.90
2022-09-05T22:42:26.303Z,99.90
2022-09-05T22:47:32.047Z,99.90
2022-09-05T22:52:37.739Z,99.90
2022-09-05T22:57:43.759Z,99.90
2022-09-05T23:02:52.386Z,99.90
2022-09-05T23:08:02.415Z,99.90
2022-09-05T23:13:10.496Z,99.90
2022-09-05T23:18:16.010Z,99.90
2022-09-05T23:23:21.246Z,99.90
2022-09-05T23:28:27.018Z,99.90
2022-09-05T23:33:33.527Z,99.90
2022-09-05T23:38:38.960Z,99.90
2022-09-05T23:43:44.464Z,99.90
2022-09-05T23:48:50.000Z,99.90
2022-09-05T23:53:55.108Z,99.90
2022-09-05T23:59:00.810Z,99.90
